Flight Track Log - Related Links

Times and Time Zones

All times are in EDT time to prevent confusion due to time zone crossing. See the UAL395 flight status page for this flight to view local times or setup timezone preferences in your user account.

Time Position Orientation Groundspeed Altitude Reporting Facility
EDT Latitude Longitude Course Direction KTS MPH feet Rate Location/Type
Tue 09:59:01 AM 40.6333 -74.2000 270° West 197 227 2,400  Level New York TRACON
Tue 10:00:01 AM 40.6500 -74.2667 288° West 257 296 5,100 3,200 Climbing New York TRACON
Tue 10:01:01 AM 40.7167 -74.3167 330° Northwest 264 304 8,800 2,450 Climbing New York TRACON
Tue 10:02:01 AM 40.7833 -74.3833 323° Northwest 299 344 10,000 600 Climbing New York TRACON
Tue 10:03:01 AM 40.8500 -74.4500 323° Northwest 341 392 10,000 559 Level New York TRACON
Tue 10:03:59 AM 40.9275 -74.5117 329° Northwest 355 409 11,100 1,017 Climbing New York Center
Tue 10:04:00 AM 41.1333 -74.6876 270° West  Level FlightAware Approximate
Tue 10:04:59 AM 41.0025 -74.5764 327° Northwest 350 403 12,000  Level New York Center
Tue 10:05:59 AM 41.0833 -74.6497 326° Northwest 355 409 13,300 2,000 Climbing New York Center
Tue 10:06:59 AM 41.1631 -74.7561 315° West 360 414 16,000 2,400 Climbing New York Center
Tue 10:07:59 AM 41.2092 -74.8664 299° West 380 437 18,100 2,300 Climbing New York Center
Tue 10:08:59 AM 41.2689 -75.0053 300° West 394 453 20,600 2,300 Climbing New York Center
Tue 10:09:59 AM 41.3267 -75.1361 300° West 404 465 22,700 1,950 Climbing New York Center
Tue 10:10:59 AM 41.3842 -75.2725 299° West 415 478 24,500 1,850 Climbing New York Center
Tue 10:11:59 AM 41.4433 -75.4092 300° West 421 484 26,400 1,700 Climbing New York Center
Tue 10:12:59 AM 41.4961 -75.5514 296° West 427 491 27,900 1,900 Climbing New York Center
Tue 10:13:59 AM 41.5397 -75.7042 291° West 437 503 30,200 2,050 Climbing New York Center
Tue 10:14:59 AM 41.5836 -75.8517 292° West 437 503 32,000 1,650 Climbing New York Center
Tue 10:15:59 AM 41.6250 -75.9992 291° West 432 497 33,500 1,550 Climbing New York Center
Tue 10:16:59 AM 41.6686 -76.1442 292° West 432 497 35,100 1,600 Climbing New York Center
Tue 10:17:59 AM 41.7075 -76.2917 289° West 427 491 36,700 1,450 Climbing New York Center
Tue 10:18:59 AM 41.7411 -76.4169 290° West 412 474 38,000 650 Climbing New York Center
Tue 10:19:59 AM 41.7819 -76.5650 290° West 404 465 38,000  Level New York Center
Tue 10:22:28 AM 41.8786 -76.9211 290° West 404 465 38,000  Level Cleveland Center
Tue 10:23:28 AM 41.9208 -77.0667 291° West 409 471 38,000  Level Cleveland Center
Tue 10:24:28 AM 41.9583 -77.2100 289° West 409 471 38,000  Level Cleveland Center
Tue 10:25:28 AM 42.0003 -77.3558 291° West 409 471 38,000  Level Cleveland Center
Tue 10:26:28 AM 42.0375 -77.4994 289° West 414 476 38,000  Level Cleveland Center
Tue 10:27:28 AM 42.0725 -77.6431 288° West 414 476 38,000  Level Cleveland Center
Tue 10:28:28 AM 42.1117 -77.7897 290° West 414 476 38,000  Level Cleveland Center
Tue 10:29:28 AM 42.1483 -77.9308 289° West 414 476 38,000  Level Cleveland Center
Tue 10:30:28 AM 42.1869 -78.0750 290° West 414 476 38,000  Level Cleveland Center
Tue 10:31:28 AM 42.2233 -78.2222 289° West 414 476 38,000  Level Cleveland Center
Tue 10:32:28 AM 42.2617 -78.3639 290° West 414 476 38,000  Level Cleveland Center
Tue 10:33:28 AM 42.2978 -78.5058 289° West 414 476 38,000  Level Cleveland Center
Tue 10:34:28 AM 42.3356 -78.6506 289° West 414 476 38,000  Level Cleveland Center
Tue 10:35:28 AM 42.3733 -78.7956 289° West 414 476 38,000  Level Cleveland Center
Tue 10:36:28 AM 42.4089 -78.9408 288° West 414 476 38,000  Level Cleveland Center
Tue 10:37:28 AM 42.4419 -79.0778 288° West 414 476 38,000  Level Cleveland Center
Tue 10:38:28 AM 42.4836 -79.2375 290° West 419 482 38,000  Level Cleveland Center
Tue 10:39:28 AM 42.5000 -79.3947 278° West 419 482 38,000  Level Cleveland Center
Tue 10:40:28 AM 42.5056 -79.5494 273° West 419 482 38,000  Level Cleveland Center
Tue 10:41:28 AM 42.5153 -79.7072 275° West 419 482 38,000  Level Cleveland Center
Tue 10:42:28 AM 42.5206 -79.8647 273° West 419 482 38,000  Level Cleveland Center
Tue 10:43:28 AM 42.5256 -80.0253 272° West 419 482 38,000  Level Cleveland Center
Tue 10:44:28 AM 42.5325 -80.1803 274° West 424 488 38,000  Level Cleveland Center
Tue 10:45:28 AM 42.5392 -80.3436 273° West 419 482 38,000  Level Cleveland Center
Tue 10:46:28 AM 42.5436 -80.4986 272° West 426 490 38,000  Level Cleveland Center
Tue 10:47:28 AM 42.5519 -80.6592 274° West 421 484 38,000  Level Cleveland Center
Tue 10:48:28 AM 42.5558 -80.8003 272° West 421 484 38,000  Level Cleveland Center
Tue 10:49:28 AM 42.5639 -80.9608 274° West 421 484 38,000  Level Cleveland Center
Tue 10:50:28 AM 42.5694 -81.1189 273° West 421 484 38,000  Level Cleveland Center
Tue 10:51:28 AM 42.5747 -81.2794 273° West 426 490 38,000  Level Cleveland Center
Tue 10:52:28 AM 42.5819 -81.4433 273° West 426 490 38,000  Level Cleveland Center
Tue 10:53:28 AM 42.6100 -81.5986 284° West 426 490 38,000  Level Cleveland Center
Tue 10:54:28 AM 42.6356 -81.7544 283° West 426 490 38,000  Level Cleveland Center
Tue 10:55:28 AM 42.6631 -81.9103 284° West 426 490 38,000  Level Cleveland Center
Tue 10:56:28 AM 42.6903 -82.0661 283° West 432 497 38,000  Level Cleveland Center
Tue 10:57:28 AM 42.7172 -82.2278 283° West 432 497 38,000  Level Cleveland Center
Tue 10:58:28 AM 42.7442 -82.3869 283° West 432 497 38,000  Level Cleveland Center
Tue 10:59:28 AM 42.7728 -82.5517 283° West 432 497 38,000  Level Cleveland Center
Tue 11:00:28 AM 42.7989 -82.7139 282° West 432 497 38,000  Level Cleveland Center
Tue 11:01:28 AM 42.8269 -82.8792 283° West 437 503 38,000  Level Cleveland Center
Tue 11:02:28 AM 42.8403 -83.0439 276° West 437 503 38,000  Level Cleveland Center
Tue 11:03:28 AM 42.8447 -83.2167 272° West 444 511 38,000  Level Cleveland Center
Tue 11:04:28 AM 42.8514 -83.3842 273° West 449 517 38,000 -50 Level Cleveland Center
Tue 11:05:28 AM 42.8556 -83.5514 272° West 449 517 37,900 -650 Descending Cleveland Center
Tue 11:06:28 AM 42.8614 -83.7244 273° West 449 517 36,700 -1,150 Descending Cleveland Center
Tue 11:07:28 AM 42.8650 -83.8919 272° West 454 522 35,600 -1,300 Descending Cleveland Center
Tue 11:08:28 AM 42.8706 -84.0594 273° West 449 517 34,100 -1,300 Descending Cleveland Center
Tue 11:09:28 AM 42.8736 -84.2267 271° West 449 517 33,000 -992 Descending Cleveland Center
Tue 11:10:35 AM 42.8806 -84.4242 273° West 445 512 32,000 -465 Descending Chicago Center
Tue 11:11:37 AM 42.8828 -84.5936 271° West 449 517 32,000  Level Chicago Center
Tue 11:12:39 AM 42.8664 -84.7608 262° West 444 511 32,000  Level Chicago Center
Tue 11:13:41 AM 42.8489 -84.9278 262° West 445 512 32,000  Level Chicago Center
Tue 11:14:43 AM 42.8306 -85.0953 262° West 447 514 32,000  Level Chicago Center
Tue 11:15:45 AM 42.8072 -85.2611 259° West 445 512 32,000 -439 Level Chicago Center
Tue 11:16:46 AM 42.7794 -85.4281 257° West 450 518 31,100 -976 Descending Chicago Center
Tue 11:17:48 AM 42.7478 -85.6339 258° West 460 529 30,000 -1,790 Descending Chicago Center
Tue 11:18:50 AM 42.7211 -85.8061 258° West 462 532 27,400 -2,516 Descending Chicago Center
Tue 11:19:52 AM 42.6939 -85.9753 258° West 456 525 24,800 -2,468 Descending Chicago Center
Tue 11:20:54 AM 42.6681 -86.1372 258° West 439 505 22,300 -2,274 Descending Chicago Center
Tue 11:21:56 AM 42.6439 -86.2944 258° West 427 491 20,100 -1,171 Descending Chicago Center
Tue 11:22:57 AM 42.6189 -86.4417 257° West 402 463 19,900 -878 Descending Chicago Center
Tue 11:23:59 AM 42.5872 -86.5772 252° West 381 438 18,300 -1,645 Descending Chicago Center
Tue 11:25:01 AM 42.5614 -86.7217 256° West 364 419 16,500 -1,597 Descending Chicago Center
Tue 11:26:03 AM 42.5253 -86.8589 250° West 351 404 15,000 -1,210 Descending Chicago Center
Tue 11:27:05 AM 42.4956 -86.9683 250° West 318 366 14,000 -871 Descending Chicago Center
Tue 11:28:07 AM 42.4667 -87.0658 248° West 279 321 13,200 -1,210 Descending Chicago Center
Tue 11:29:09 AM 42.4425 -87.1519 249° West 249 287 11,500 -1,694 Descending Chicago Center
Tue 11:30:11 AM 42.4169 -87.2375 248° West 246 283 9,700 -1,210 Descending Chicago Center
Tue 11:31:13 AM 42.3494 -87.2456 185° South 242 278 9,000 -341 Descending Chicago Center
Tue 11:32:14 AM 42.2817 -87.2569 187° South 240 276 9,000 -390 Level Chicago Center
Tue 11:33:16 AM 42.2242 -87.2986 208° Southwest 236 272 8,200 -968 Descending Chicago Center
Tue 11:34:18 AM 42.1586 -87.3436 207° Southwest 221 254 7,000 -919 Descending Chicago Center
Tue 11:35:20 AM 42.1042 -87.3814 207° Southwest 220 253 6,300 -484 Descending Chicago Center
Tue 11:36:22 AM 42.0506 -87.4194 208° Southwest 219 252 6,000 -145 Descending Chicago Center
Tue 11:37:24 AM 41.9981 -87.4578 208° Southwest 217 250 6,000 -97 Level Chicago Center
Tue 11:38:26 AM 41.9847 -87.5361 257° West 215 247 5,800 -726 Descending Chicago Center
Tue 11:39:28 AM 41.9822 -87.6281 268° West 208 239 4,500 -1,210 Descending Chicago Center
Tue 11:40:30 AM 41.9850 -87.7058 273° West 208 239 3,300 -1,148 Descending Chicago Center
Tue 11:41:23 AM 41.9833 -87.7833 268° West 204 235 2,300 -1,132 Descending Chicago TRACON

Login

Don't have an account? Register now (free) for customized features, flight alerts, and more!